sensor_id;sensor_type;location;lat;lon;timestamp;temperature;humidity
7502;DHT22;3792;47.740;7.606;2023-06-19T00:01:24;21.20;99.90
7502;DHT22;3792;47.740;7.606;2023-06-19T00:03:51;21.30;99.90
7502;DHT22;3792;47.740;7.606;2023-06-19T00:06:18;21.40;99.90
7502;DHT22;3792;47.740;7.606;2023-06-19T00:08:45;21.40;99.90
7502;DHT22;3792;47.740;7.606;2023-06-19T00:11:12;21.40;99.90
7502;DHT22;3792;47.740;7.606;2023-06-19T00:13:41;21.40;99.90
7502;DHT22;3792;47.740;7.606;2023-06-19T00:16:08;21.40;99.90
7502;DHT22;3792;47.740;7.606;2023-06-19T00:18:35;21.30;99.90
7502;DHT22;3792;47.740;7.606;2023-06-19T00:21:05;21.20;99.90
7502;DHT22;3792;47.740;7.606;2023-06-19T00:23:33;21.20;99.90
7502;DHT22;3792;47.740;7.606;2023-06-19T00:26:00;21.10;99.90
7502;DHT22;3792;47.740;7.606;2023-06-19T00:28:28;21.10;99.90
7502;DHT22;3792;47.740;7.606;2023-06-19T00:30:57;21.10;99.90
7502;DHT22;3792;47.740;7.606;2023-06-19T00:33:24;21.10;99.90
7502;DHT22;3792;47.740;7.606;2023-06-19T00:35:52;21.20;99.90
7502;DHT22;3792;47.740;7.606;2023-06-19T00:38:19;21.30;99.90
7502;DHT22;3792;47.740;7.606;2023-06-19T00:40:47;21.40;99.90
7502;DHT22;3792;47.740;7.606;2023-06-19T00:43:14;21.40;99.90
7502;DHT22;3792;47.740;7.606;2023-06-19T00:45:41;21.40;99.90
7502;DHT22;3792;47.740;7.606;2023-06-19T00:48:09;21.40;99.90
7502;DHT22;3792;47.740;7.606;2023-06-19T00:50:37;21.50;99.90
7502;DHT22;3792;47.740;7.606;2023-06-19T00:53:04;21.60;99.90
7502;DHT22;3792;47.740;7.606;2023-06-19T00:55:33;21.60;99.90
7502;DHT22;3792;47.740;7.606;2023-06-19T00:58:00;21.70;99.90
7502;DHT22;3792;47.740;7.606;2023-06-19T01:00:28;21.80;99.90
7502;DHT22;3792;47.740;7.606;2023-06-19T01:02:55;21.80;99.90
7502;DHT22;3792;47.740;7.606;2023-06-19T01:05:23;21.70;99.90
7502;DHT22;3792;47.740;7.606;2023-06-19T01:07:56;21.70;99.90
7502;DHT22;3792;47.740;7.606;2023-06-19T01:10:28;21.70;99.90
7502;DHT22;3792;47.740;7.606;2023-06-19T01:13:00;21.70;99.90
7502;DHT22;3792;47.740;7.606;2023-06-19T01:15:28;21.60;99.90
7502;DHT22;3792;47.740;7.606;2023-06-19T01:17:58;21.60;99.90
7502;DHT22;3792;47.740;7.606;2023-06-19T01:20:29;21.60;99.90
7502;DHT22;3792;47.740;7.606;2023-06-19T01:23:06;21.50;99.90
7502;DHT22;3792;47.740;7.606;2023-06-19T01:25:33;21.50;99.90
7502;DHT22;3792;47.740;7.606;2023-06-19T01:28:02;21.40;99.90
7502;DHT22;3792;47.740;7.606;2023-06-19T01:30:31;21.40;99.90
7502;DHT22;3792;47.740;7.606;2023-06-19T01:33:02;21.40;99.90
7502;DHT22;3792;47.740;7.606;2023-06-19T01:35:33;21.30;99.90
7502;DHT22;3792;47.740;7.606;2023-06-19T01:38:06;21.30;99.90
7502;DHT22;3792;47.740;7.606;2023-06-19T01:40:34;21.30;99.90
7502;DHT22;3792;47.740;7.606;2023-06-19T01:43:02;21.40;99.90
7502;DHT22;3792;47.740;7.606;2023-06-19T01:45:30;21.40;99.90
7502;DHT22;3792;47.740;7.606;2023-06-19T01:47:57;21.40;99.90
7502;DHT22;3792;47.740;7.606;2023-06-19T01:50:25;21.30;99.90
7502;DHT22;3792;47.740;7.606;2023-06-19T01:52:52;21.30;99.90
7502;DHT22;3792;47.740;7.606;2023-06-19T01:55:21;21.30;99.90
7502;DHT22;3792;47.740;7.606;2023-06-19T01:57:48;21.30;99.90
7502;DHT22;3792;47.740;7.606;2023-06-19T02:00:15;21.30;99.90
7502;DHT22;3792;47.740;7.606;2023-06-19T02:02:43;21.30;99.90
7502;DHT22;3792;47.740;7.606;2023-06-19T02:05:11;21.20;99.90
7502;DHT22;3792;47.740;7.606;2023-06-19T02:07:38;21.10;99.90
7502;DHT22;3792;47.740;7.606;2023-06-19T02:10:06;21.20;99.90
7502;DHT22;3792;47.740;7.606;2023-06-19T02:12:35;21.20;99.90
7502;DHT22;3792;47.740;7.606;2023-06-19T02:15:02;21.20;99.90
7502;DHT22;3792;47.740;7.606;2023-06-19T02:17:30;21.20;99.90
7502;DHT22;3792;47.740;7.606;2023-06-19T02:19:57;21.10;99.90
7502;DHT22;3792;47.740;7.606;2023-06-19T02:22:24;21.10;99.90
7502;DHT22;3792;47.740;7.606;2023-06-19T02:24:51;21.10;99.90
7502;DHT22;3792;47.740;7.606;2023-06-19T02:27:18;21.10;99.90
7502;DHT22;3792;47.740;7.606;2023-06-19T02:29:46;21.10;99.90
7502;DHT22;3792;47.740;7.606;2023-06-19T02:32:14;21.00;99.90
7502;DHT22;3792;47.740;7.606;2023-06-19T02:34:41;21.00;99.90
7502;DHT22;3792;47.740;7.606;2023-06-19T02:37:08;21.00;99.90
7502;DHT22;3792;47.740;7.606;2023-06-19T02:39:35;20.90;99.90
7502;DHT22;3792;47.740;7.606;2023-06-19T02:42:02;20.80;99.90
7502;DHT22;3792;47.740;7.606;2023-06-19T02:44:29;20.70;99.90
7502;DHT22;3792;47.740;7.606;2023-06-19T02:46:57;20.60;99.90
7502;DHT22;3792;47.740;7.606;2023-06-19T02:49:24;20.40;99.90
7502;DHT22;3792;47.740;7.606;2023-06-19T02:51:51;20.30;99.90
7502;DHT22;3792;47.740;7.606;2023-06-19T02:54:18;20.10;99.90
7502;DHT22;3792;47.740;7.606;2023-06-19T02:56:45;20.00;99.90
7502;DHT22;3792;47.740;7.606;2023-06-19T02:59:12;20.10;99.90
7502;DHT22;3792;47.740;7.606;2023-06-19T03:01:39;20.00;99.90
7502;DHT22;3792;47.740;7.606;2023-06-19T03:04:08;20.10;99.90
7502;DHT22;3792;47.740;7.606;2023-06-19T03:06:35;20.20;99.90
7502;DHT22;3792;47.740;7.606;2023-06-19T03:09:05;20.20;99.90
7502;DHT22;3792;47.740;7.606;2023-06-19T03:11:38;20.30;99.90
7502;DHT22;3792;47.740;7.606;2023-06-19T03:14:05;20.40;99.90
7502;DHT22;3792;47.740;7.606;2023-06-19T03:16:33;20.40;99.90
7502;DHT22;3792;47.740;7.606;2023-06-19T03:19:00;20.50;99.90
7502;DHT22;3792;47.740;7.606;2023-06-19T03:21:28;20.50;99.90
7502;DHT22;3792;47.740;7.606;2023-06-19T03:23:56;20.40;99.90
7502;DHT22;3792;47.740;7.606;2023-06-19T03:26:23;20.40;99.90
7502;DHT22;3792;47.740;7.606;2023-06-19T03:28:51;20.30;99.90
7502;DHT22;3792;47.740;7.606;2023-06-19T03:31:18;20.30;99.90
7502;DHT22;3792;47.740;7.606;2023-06-19T03:33:45;20.20;99.90
7502;DHT22;3792;47.740;7.606;2023-06-19T03:36:12;20.20;99.90
7502;DHT22;3792;47.740;7.606;2023-06-19T03:38:41;20.20;99.90
7502;DHT22;3792;47.740;7.606;2023-06-19T03:41:08;20.30;99.90
7502;DHT22;3792;47.740;7.606;2023-06-19T03:43:35;20.30;99.90
7502;DHT22;3792;47.740;7.606;2023-06-19T03:46:02;20.30;99.90
7502;DHT22;3792;47.740;7.606;2023-06-19T03:48:29;20.30;99.90
7502;DHT22;3792;47.740;7.606;2023-06-19T03:50:56;20.30;99.90
7502;DHT22;3792;47.740;7.606;2023-06-19T03:53:23;20.30;99.90
7502;DHT22;3792;47.740;7.606;2023-06-19T03:55:52;20.40;99.90
7502;DHT22;3792;47.740;7.606;2023-06-19T03:58:19;20.40;99.90
7502;DHT22;3792;47.740;7.606;2023-06-19T04:00:46;20.40;99.90
7502;DHT22;3792;47.740;7.606;2023-06-19T04:03:13;20.50;99.90
7502;DHT22;3792;47.740;7.606;2023-06-19T04:05:40;20.50;99.90
7502;DHT22;3792;47.740;7.606;2023-06-19T04:08:08;20.50;99.90
7502;DHT22;3792;47.740;7.606;2023-06-19T04:10:35;20.40;99.90
7502;DHT22;3792;47.740;7.606;2023-06-19T04:13:03;20.40;99.90
7502;DHT22;3792;47.740;7.606;2023-06-19T04:15:32;20.30;99.90
7502;DHT22;3792;47.740;7.606;2023-06-19T04:18:01;20.30;99.90
7502;DHT22;3792;47.740;7.606;2023-06-19T04:20:28;20.30;99.90
7502;DHT22;3792;47.740;7.606;2023-06-19T04:22:55;20.20;99.90
7502;DHT22;3792;47.740;7.606;2023-06-19T04:25:22;20.00;99.90
7502;DHT22;3792;47.740;7.606;2023-06-19T04:27:49;19.80;99.90
7502;DHT22;3792;47.740;7.606;2023-06-19T04:30:18;19.70;99.90
7502;DHT22;3792;47.740;7.606;2023-06-19T04:32:46;19.50;99.90
7502;DHT22;3792;47.740;7.606;2023-06-19T04:35:13;19.50;99.90
7502;DHT22;3792;47.740;7.606;2023-06-19T04:37:40;19.30;99.90
7502;DHT22;3792;47.740;7.606;2023-06-19T04:40:08;19.40;99.90
7502;DHT22;3792;47.740;7.606;2023-06-19T04:42:36;19.30;99.90
7502;DHT22;3792;47.740;7.606;2023-06-19T04:45:05;19.30;99.90
7502;DHT22;3792;47.740;7.606;2023-06-19T04:47:34;19.30;99.90
7502;DHT22;3792;47.740;7.606;2023-06-19T04:50:01;19.30;99.90
7502;DHT22;3792;47.740;7.606;2023-06-19T04:52:28;19.30;99.90
7502;DHT22;3792;47.740;7.606;2023-06-19T04:54:56;19.30;99.90
7502;DHT22;3792;47.740;7.606;2023-06-19T04:57:23;19.40;99.90
7502;DHT22;3792;47.740;7.606;2023-06-19T04:59:50;19.40;99.90
7502;DHT22;3792;47.740;7.606;2023-06-19T05:02:17;19.50;99.90
7502;DHT22;3792;47.740;7.606;2023-06-19T05:04:46;19.50;99.90
7502;DHT22;3792;47.740;7.606;2023-06-19T05:07:13;19.50;99.90
7502;DHT22;3792;47.740;7.606;2023-06-19T05:09:41;19.50;99.90
7502;DHT22;3792;47.740;7.606;2023-06-19T05:12:09;19.40;99.90
7502;DHT22;3792;47.740;7.606;2023-06-19T05:14:36;19.50;99.90
7502;DHT22;3792;47.740;7.606;2023-06-19T05:17:04;19.60;99.90
7502;DHT22;3792;47.740;7.606;2023-06-19T05:19:31;19.70;99.90
7502;DHT22;3792;47.740;7.606;2023-06-19T05:21:59;19.70;99.90
7502;DHT22;3792;47.740;7.606;2023-06-19T05:24:26;19.70;99.90
7502;DHT22;3792;47.740;7.606;2023-06-19T05:26:53;19.80;99.90
7502;DHT22;3792;47.740;7.606;2023-06-19T05:29:20;19.90;99.90
7502;DHT22;3792;47.740;7.606;2023-06-19T05:31:47;20.00;99.90
7502;DHT22;3792;47.740;7.606;2023-06-19T05:34:14;20.20;99.90
7502;DHT22;3792;47.740;7.606;2023-06-19T05:36:41;20.30;99.90
7502;DHT22;3792;47.740;7.606;2023-06-19T05:39:14;20.30;99.90
7502;DHT22;3792;47.740;7.606;2023-06-19T05:41:41;20.40;99.90
7502;DHT22;3792;47.740;7.606;2023-06-19T05:44:11;20.40;99.90
7502;DHT22;3792;47.740;7.606;2023-06-19T05:46:40;20.40;99.90
7502;DHT22;3792;47.740;7.606;2023-06-19T05:49:07;20.40;99.90
7502;DHT22;3792;47.740;7.606;2023-06-19T05:51:34;20.50;99.90
7502;DHT22;3792;47.740;7.606;2023-06-19T05:54:01;20.60;99.90
7502;DHT22;3792;47.740;7.606;2023-06-19T05:56:30;20.70;99.90
7502;DHT22;3792;47.740;7.606;2023-06-19T05:58:58;20.90;99.90
7502;DHT22;3792;47.740;7.606;2023-06-19T06:01:26;21.00;99.90
7502;DHT22;3792;47.740;7.606;2023-06-19T06:03:54;21.00;99.90
7502;DHT22;3792;47.740;7.606;2023-06-19T06:06:23;21.10;99.90
7502;DHT22;3792;47.740;7.606;2023-06-19T06:08:51;21.20;99.90
7502;DHT22;3792;47.740;7.606;2023-06-19T06:11:18;21.30;99.90
7502;DHT22;3792;47.740;7.606;2023-06-19T06:13:46;21.40;99.90
7502;DHT22;3792;47.740;7.606;2023-06-19T06:16:14;21.50;99.90
7502;DHT22;3792;47.740;7.606;2023-06-19T06:18:41;21.60;99.90
7502;DHT22;3792;47.740;7.606;2023-06-19T06:21:08;21.70;99.90
7502;DHT22;3792;47.740;7.606;2023-06-19T06:23:35;21.70;99.90
7502;DHT22;3792;47.740;7.606;2023-06-19T06:26:02;21.80;99.90
7502;DHT22;3792;47.740;7.606;2023-06-19T06:28:29;21.80;99.90
7502;DHT22;3792;47.740;7.606;2023-06-19T06:30:58;21.70;99.90
7502;DHT22;3792;47.740;7.606;2023-06-19T06:33:25;21.80;99.90
7502;DHT22;3792;47.740;7.606;2023-06-19T06:35:54;21.80;99.90
7502;DHT22;3792;47.740;7.606;2023-06-19T06:38:21;21.80;99.90
7502;DHT22;3792;47.740;7.606;2023-06-19T06:40:48;21.90;99.90
7502;DHT22;3792;47.740;7.606;2023-06-19T06:43:16;21.90;99.90
7502;DHT22;3792;47.740;7.606;2023-06-19T06:45:43;21.90;99.90
7502;DHT22;3792;47.740;7.606;2023-06-19T06:48:11;22.00;99.90
7502;DHT22;3792;47.740;7.606;2023-06-19T06:50:38;22.00;99.90
7502;DHT22;3792;47.740;7.606;2023-06-19T06:53:06;22.10;99.90
7502;DHT22;3792;47.740;7.606;2023-06-19T06:55:34;22.20;99.90
7502;DHT22;3792;47.740;7.606;2023-06-19T06:58:01;22.30;99.90
7502;DHT22;3792;47.740;7.606;2023-06-19T07:00:28;22.40;99.90
7502;DHT22;3792;47.740;7.606;2023-06-19T07:02:56;22.60;99.90
7502;DHT22;3792;47.740;7.606;2023-06-19T07:05:24;22.80;99.90
7502;DHT22;3792;47.740;7.606;2023-06-19T07:07:51;22.90;99.90
7502;DHT22;3792;47.740;7.606;2023-06-19T07:10:18;22.90;99.90
7502;DHT22;3792;47.740;7.606;2023-06-19T07:12:46;23.00;99.90
7502;DHT22;3792;47.740;7.606;2023-06-19T07:15:13;23.00;99.90
7502;DHT22;3792;47.740;7.606;2023-06-19T07:17:41;23.00;99.90
7502;DHT22;3792;47.740;7.606;2023-06-19T07:20:08;23.00;99.90
7502;DHT22;3792;47.740;7.606;2023-06-19T07:22:38;23.00;99.90
7502;DHT22;3792;47.740;7.606;2023-06-19T07:25:06;22.90;99.90
7502;DHT22;3792;47.740;7.606;2023-06-19T07:27:33;22.90;99.90
7502;DHT22;3792;47.740;7.606;2023-06-19T07:30:00;23.00;99.90
7502;DHT22;3792;47.740;7.606;2023-06-19T07:32:27;23.10;99.90
7502;DHT22;3792;47.740;7.606;2023-06-19T07:34:54;23.30;99.90
7502;DHT22;3792;47.740;7.606;2023-06-19T07:37:21;23.60;99.90
7502;DHT22;3792;47.740;7.606;2023-06-19T07:39:50;24.00;99.90
7502;DHT22;3792;47.740;7.606;2023-06-19T07:42:18;24.30;99.90
7502;DHT22;3792;47.740;7.606;2023-06-19T07:44:46;24.60;99.90
7502;DHT22;3792;47.740;7.606;2023-06-19T07:47:15;24.70;99.90
7502;DHT22;3792;47.740;7.606;2023-06-19T07:49:44;24.80;99.90
7502;DHT22;3792;47.740;7.606;2023-06-19T07:52:11;25.00;99.90
7502;DHT22;3792;47.740;7.606;2023-06-19T07:54:49;25.10;99.90
7502;DHT22;3792;47.740;7.606;2023-06-19T07:57:17;25.30;99.90
7502;DHT22;3792;47.740;7.606;2023-06-19T07:59:44;25.40;99.90
7502;DHT22;3792;47.740;7.606;2023-06-19T08:02:11;25.30;99.90
7502;DHT22;3792;47.740;7.606;2023-06-19T08:04:38;25.50;99.90
7502;DHT22;3792;47.740;7.606;2023-06-19T08:07:05;25.60;99.90
7502;DHT22;3792;47.740;7.606;2023-06-19T08:09:32;25.70;99.90
7502;DHT22;3792;47.740;7.606;2023-06-19T08:12:01;25.80;99.90
7502;DHT22;3792;47.740;7.606;2023-06-19T08:14:28;25.90;99.90
7502;DHT22;3792;47.740;7.606;2023-06-19T08:16:55;25.90;99.90
7502;DHT22;3792;47.740;7.606;2023-06-19T08:19:22;26.00;99.90
7502;DHT22;3792;47.740;7.606;2023-06-19T08:21:49;26.10;99.90
7502;DHT22;3792;47.740;7.606;2023-06-19T08:24:17;26.00;99.90
7502;DHT22;3792;47.740;7.606;2023-06-19T08:26:44;26.10;99.90
7502;DHT22;3792;47.740;7.606;2023-06-19T08:29:13;26.00;99.90
7502;DHT22;3792;47.740;7.606;2023-06-19T08:31:40;26.10;99.90
7502;DHT22;3792;47.740;7.606;2023-06-19T08:34:07;26.20;99.90
7502;DHT22;3792;47.740;7.606;2023-06-19T08:36:35;26.30;99.90
7502;DHT22;3792;47.740;7.606;2023-06-19T08:39:02;26.40;99.90
7502;DHT22;3792;47.740;7.606;2023-06-19T08:41:30;26.40;98.40
7502;DHT22;3792;47.740;7.606;2023-06-19T08:43:57;26.40;99.20
7502;DHT22;3792;47.740;7.606;2023-06-19T08:46:26;26.40;97.80
7502;DHT22;3792;47.740;7.606;2023-06-19T08:48:55;26.40;96.40
7502;DHT22;3792;47.740;7.606;2023-06-19T08:51:22;26.50;98.10
7502;DHT22;3792;47.740;7.606;2023-06-19T08:53:54;26.40;96.00
7502;DHT22;3792;47.740;7.606;2023-06-19T08:56:21;26.50;94.70
7502;DHT22;3792;47.740;7.606;2023-06-19T08:58:48;26.40;95.50
7502;DHT22;3792;47.740;7.606;2023-06-19T09:01:17;26.50;95.90
7502;DHT22;3792;47.740;7.606;2023-06-19T09:03:46;26.50;94.60
7502;DHT22;3792;47.740;7.606;2023-06-19T09:06:18;26.50;93.70
7502;DHT22;3792;47.740;7.606;2023-06-19T09:08:45;26.60;95.70
7502;DHT22;3792;47.740;7.606;2023-06-19T09:11:12;26.70;94.90
7502;DHT22;3792;47.740;7.606;2023-06-19T09:13:39;26.80;95.20
7502;DHT22;3792;47.740;7.606;2023-06-19T09:16:07;26.90;94.20
7502;DHT22;3792;47.740;7.606;2023-06-19T09:18:43;27.00;94.10
7502;DHT22;3792;47.740;7.606;2023-06-19T09:21:17;27.20;93.30
7502;DHT22;3792;47.740;7.606;2023-06-19T09:23:45;27.30;93.20
7502;DHT22;3792;47.740;7.606;2023-06-19T09:26:14;27.20;93.50
7502;DHT22;3792;47.740;7.606;2023-06-19T09:28:43;27.30;93.70
7502;DHT22;3792;47.740;7.606;2023-06-19T09:31:11;27.30;93.30
7502;DHT22;3792;47.740;7.606;2023-06-19T09:33:39;27.30;93.00
7502;DHT22;3792;47.740;7.606;2023-06-19T09:36:06;27.40;93.70
7502;DHT22;3792;47.740;7.606;2023-06-19T09:38:37;27.60;92.80
7502;DHT22;3792;47.740;7.606;2023-06-19T09:41:06;27.80;92.30
7502;DHT22;3792;47.740;7.606;2023-06-19T09:43:35;27.90;92.20
7502;DHT22;3792;47.740;7.606;2023-06-19T09:46:03;27.90;91.70
7502;DHT22;3792;47.740;7.606;2023-06-19T09:48:33;28.00;93.20
7502;DHT22;3792;47.740;7.606;2023-06-19T09:51:07;28.20;92.00
7502;DHT22;3792;47.740;7.606;2023-06-19T09:53:38;28.20;91.50
7502;DHT22;3792;47.740;7.606;2023-06-19T09:56:07;28.40;92.00
7502;DHT22;3792;47.740;7.606;2023-06-19T09:58:35;28.60;91.40
7502;DHT22;3792;47.740;7.606;2023-06-19T10:01:04;28.50;90.60
7502;DHT22;3792;47.740;7.606;2023-06-19T10:03:32;28.70;91.80
7502;DHT22;3792;47.740;7.606;2023-06-19T10:06:01;28.90;92.40
7502;DHT22;3792;47.740;7.606;2023-06-19T10:08:29;29.20;91.40
7502;DHT22;3792;47.740;7.606;2023-06-19T10:10:58;29.10;90.20
7502;DHT22;3792;47.740;7.606;2023-06-19T10:13:32;29.20;90.20
7502;DHT22;3792;47.740;7.606;2023-06-19T10:16:00;29.30;89.60
7502;DHT22;3792;47.740;7.606;2023-06-19T10:18:27;29.10;90.10
7502;DHT22;3792;47.740;7.606;2023-06-19T10:20:55;28.60;91.30
7502;DHT22;3792;47.740;7.606;2023-06-19T10:23:24;28.20;91.00
7502;DHT22;3792;47.740;7.606;2023-06-19T10:25:59;28.20;91.00
7502;DHT22;3792;47.740;7.606;2023-06-19T10:28:27;28.10;90.80
7502;DHT22;3792;47.740;7.606;2023-06-19T10:30:56;28.10;90.60
7502;DHT22;3792;47.740;7.606;2023-06-19T10:33:24;28.30;90.30
7502;DHT22;3792;47.740;7.606;2023-06-19T10:35:51;28.60;90.20
7502;DHT22;3792;47.740;7.606;2023-06-19T10:38:19;28.90;90.40
7502;DHT22;3792;47.740;7.606;2023-06-19T10:40:46;29.00;89.50
7502;DHT22;3792;47.740;7.606;2023-06-19T10:43:19;29.10;90.00
7502;DHT22;3792;47.740;7.606;2023-06-19T10:45:47;28.90;87.40
7502;DHT22;3792;47.740;7.606;2023-06-19T10:48:19;28.80;89.40
7502;DHT22;3792;47.740;7.606;2023-06-19T10:50:47;28.90;87.30
7502;DHT22;3792;47.740;7.606;2023-06-19T10:53:23;28.80;87.30
7502;DHT22;3792;47.740;7.606;2023-06-19T10:55:56;28.70;87.50
7502;DHT22;3792;47.740;7.606;2023-06-19T10:58:24;28.30;87.50
7502;DHT22;3792;47.740;7.606;2023-06-19T11:00:52;28.20;88.00
7502;DHT22;3792;47.740;7.606;2023-06-19T11:03:19;28.20;89.30
7502;DHT22;3792;47.740;7.606;2023-06-19T11:05:46;28.20;90.10
7502;DHT22;3792;47.740;7.606;2023-06-19T11:08:18;28.20;89.70
7502;DHT22;3792;47.740;7.606;2023-06-19T11:10:45;28.20;90.70
7502;DHT22;3792;47.740;7.606;2023-06-19T11:13:14;28.20;90.50
7502;DHT22;3792;47.740;7.606;2023-06-19T11:15:43;28.30;90.80
7502;DHT22;3792;47.740;7.606;2023-06-19T11:18:10;28.30;91.20
7502;DHT22;3792;47.740;7.606;2023-06-19T11:20:44;28.40;90.60
7502;DHT22;3792;47.740;7.606;2023-06-19T11:23:12;28.50;90.40
7502;DHT22;3792;47.740;7.606;2023-06-19T11:25:41;28.30;90.10
7502;DHT22;3792;47.740;7.606;2023-06-19T11:28:12;28.20;90.80
7502;DHT22;3792;47.740;7.606;2023-06-19T11:30:41;28.10;90.00
7502;DHT22;3792;47.740;7.606;2023-06-19T11:33:16;28.00;89.70
7502;DHT22;3792;47.740;7.606;2023-06-19T11:35:48;28.00;89.70
7502;DHT22;3792;47.740;7.606;2023-06-19T11:38:19;28.00;90.60
7502;DHT22;3792;47.740;7.606;2023-06-19T11:40:47;27.80;90.20
7502;DHT22;3792;47.740;7.606;2023-06-19T11:43:24;27.60;90.80
7502;DHT22;3792;47.740;7.606;2023-06-19T11:45:53;27.50;90.50
7502;DHT22;3792;47.740;7.606;2023-06-19T11:48:24;27.40;90.50
7502;DHT22;3792;47.740;7.606;2023-06-19T11:50:51;27.30;90.60
7502;DHT22;3792;47.740;7.606;2023-06-19T11:53:20;27.20;90.60
7502;DHT22;3792;47.740;7.606;2023-06-19T11:55:47;27.20;90.60
7502;DHT22;3792;47.740;7.606;2023-06-19T11:58:15;27.10;91.00
7502;DHT22;3792;47.740;7.606;2023-06-19T12:00:42;27.30;91.10
7502;DHT22;3792;47.740;7.606;2023-06-19T12:03:12;27.40;90.70
7502;DHT22;3792;47.740;7.606;2023-06-19T12:05:39;27.50;91.20
7502;DHT22;3792;47.740;7.606;2023-06-19T12:08:06;27.60;90.00
7502;DHT22;3792;47.740;7.606;2023-06-19T12:10:34;27.60;90.20
7502;DHT22;3792;47.740;7.606;2023-06-19T12:13:02;27.80;90.20
7502;DHT22;3792;47.740;7.606;2023-06-19T12:15:29;27.70;90.00
7502;DHT22;3792;47.740;7.606;2023-06-19T12:17:56;27.60;90.50
7502;DHT22;3792;47.740;7.606;2023-06-19T12:20:27;27.50;90.40
7502;DHT22;3792;47.740;7.606;2023-06-19T12:22:55;27.50;91.20
7502;DHT22;3792;47.740;7.606;2023-06-19T12:25:22;27.30;91.20
7502;DHT22;3792;47.740;7.606;2023-06-19T12:27:49;27.30;91.00
7502;DHT22;3792;47.740;7.606;2023-06-19T12:30:17;27.20;91.90
7502;DHT22;3792;47.740;7.606;2023-06-19T12:32:44;27.20;91.90
7502;DHT22;3792;47.740;7.606;2023-06-19T12:35:15;27.20;92.10
7502;DHT22;3792;47.740;7.606;2023-06-19T12:37:45;27.20;92.30
7502;DHT22;3792;47.740;7.606;2023-06-19T12:40:12;27.30;92.40
7502;DHT22;3792;47.740;7.606;2023-06-19T12:42:39;27.30;92.60
7502;DHT22;3792;47.740;7.606;2023-06-19T12:45:07;27.30;91.80
7502;DHT22;3792;47.740;7.606;2023-06-19T12:47:35;27.30;91.70
7502;DHT22;3792;47.740;7.606;2023-06-19T12:50:04;27.20;91.20
7502;DHT22;3792;47.740;7.606;2023-06-19T12:52:32;27.20;91.90
7502;DHT22;3792;47.740;7.606;2023-06-19T12:55:00;27.20;91.80
7502;DHT22;3792;47.740;7.606;2023-06-19T12:57:28;27.40;91.30
7502;DHT22;3792;47.740;7.606;2023-06-19T12:59:55;27.50;91.10
7502;DHT22;3792;47.740;7.606;2023-06-19T13:02:22;27.50;90.90
7502;DHT22;3792;47.740;7.606;2023-06-19T13:04:49;27.70;90.80
7502;DHT22;3792;47.740;7.606;2023-06-19T13:07:17;27.80;90.80
7502;DHT22;3792;47.740;7.606;2023-06-19T13:09:45;27.90;90.80
7502;DHT22;3792;47.740;7.606;2023-06-19T13:12:13;28.00;90.50
7502;DHT22;3792;47.740;7.606;2023-06-19T13:14:41;28.20;90.90
7502;DHT22;3792;47.740;7.606;2023-06-19T13:17:08;28.40;90.30
7502;DHT22;3792;47.740;7.606;2023-06-19T13:19:35;28.70;90.10
7502;DHT22;3792;47.740;7.606;2023-06-19T13:22:02;28.90;89.20
7502;DHT22;3792;47.740;7.606;2023-06-19T13:24:30;29.10;88.30
7502;DHT22;3792;47.740;7.606;2023-06-19T13:26:57;29.60;89.00
7502;DHT22;3792;47.740;7.606;2023-06-19T13:29:25;29.80;88.20
7502;DHT22;3792;47.740;7.606;2023-06-19T13:31:52;29.70;89.20
7502;DHT22;3792;47.740;7.606;2023-06-19T13:34:19;29.50;87.60
7502;DHT22;3792;47.740;7.606;2023-06-19T13:36:47;29.20;87.20
7502;DHT22;3792;47.740;7.606;2023-06-19T13:39:14;29.00;87.20
7502;DHT22;3792;47.740;7.606;2023-06-19T13:41:45;28.90;88.70
7502;DHT22;3792;47.740;7.606;2023-06-19T13:44:12;28.70;89.90
7502;DHT22;3792;47.740;7.606;2023-06-19T13:46:40;28.60;89.50
7502;DHT22;3792;47.740;7.606;2023-06-19T13:49:08;28.60;90.00
7502;DHT22;3792;47.740;7.606;2023-06-19T13:51:37;28.40;89.90
7502;DHT22;3792;47.740;7.606;2023-06-19T13:54:04;28.50;89.80
7502;DHT22;3792;47.740;7.606;2023-06-19T13:56:32;28.50;88.80
7502;DHT22;3792;47.740;7.606;2023-06-19T13:58:59;28.60;88.10
7502;DHT22;3792;47.740;7.606;2023-06-19T14:01:26;28.60;87.60
7502;DHT22;3792;47.740;7.606;2023-06-19T14:03:54;28.70;88.80
7502;DHT22;3792;47.740;7.606;2023-06-19T14:06:23;29.00;88.00
7502;DHT22;3792;47.740;7.606;2023-06-19T14:08:50;29.50;87.20
7502;DHT22;3792;47.740;7.606;2023-06-19T14:11:18;29.90;86.90
7502;DHT22;3792;47.740;7.606;2023-06-19T14:13:45;30.20;86.80
7502;DHT22;3792;47.740;7.606;2023-06-19T14:16:12;30.50;85.30
7502;DHT22;3792;47.740;7.606;2023-06-19T14:18:39;30.60;83.60
7502;DHT22;3792;47.740;7.606;2023-06-19T14:21:07;30.80;82.30
7502;DHT22;3792;47.740;7.606;2023-06-19T14:23:34;30.80;84.60
7502;DHT22;3792;47.740;7.606;2023-06-19T14:26:05;31.10;82.10
7502;DHT22;3792;47.740;7.606;2023-06-19T14:28:32;31.20;81.20
7502;DHT22;3792;47.740;7.606;2023-06-19T14:30:59;31.20;80.70
7502;DHT22;3792;47.740;7.606;2023-06-19T14:33:26;31.00;79.70
7502;DHT22;3792;47.740;7.606;2023-06-19T14:35:53;31.10;80.00
7502;DHT22;3792;47.740;7.606;2023-06-19T14:38:22;31.00;80.20
7502;DHT22;3792;47.740;7.606;2023-06-19T14:40:50;30.80;81.50
7502;DHT22;3792;47.740;7.606;2023-06-19T14:43:17;30.80;82.20
7502;DHT22;3792;47.740;7.606;2023-06-19T14:45:44;30.70;79.80
7502;DHT22;3792;47.740;7.606;2023-06-19T14:48:11;30.80;80.40
7502;DHT22;3792;47.740;7.606;2023-06-19T14:50:39;31.00;79.20
7502;DHT22;3792;47.740;7.606;2023-06-19T14:53:06;31.20;80.70
7502;DHT22;3792;47.740;7.606;2023-06-19T14:55:34;31.30;79.60
7502;DHT22;3792;47.740;7.606;2023-06-19T14:58:01;31.20;79.00
7502;DHT22;3792;47.740;7.606;2023-06-19T15:00:28;31.30;80.80
7502;DHT22;3792;47.740;7.606;2023-06-19T15:02:55;31.10;81.30
7502;DHT22;3792;47.740;7.606;2023-06-19T15:05:22;31.00;80.00
7502;DHT22;3792;47.740;7.606;2023-06-19T15:07:49;31.00;81.70
7502;DHT22;3792;47.740;7.606;2023-06-19T15:10:17;30.90;80.90
7502;DHT22;3792;47.740;7.606;2023-06-19T15:12:45;30.70;80.60
7502;DHT22;3792;47.740;7.606;2023-06-19T15:15:12;30.60;80.60
7502;DHT22;3792;47.740;7.606;2023-06-19T15:17:39;30.40;80.90
7502;DHT22;3792;47.740;7.606;2023-06-19T15:20:07;30.20;81.70
7502;DHT22;3792;47.740;7.606;2023-06-19T15:22:35;30.20;83.00
7502;DHT22;3792;47.740;7.606;2023-06-19T15:25:03;30.30;83.60
7502;DHT22;3792;47.740;7.606;2023-06-19T15:27:30;30.40;83.30
7502;DHT22;3792;47.740;7.606;2023-06-19T15:29:58;30.40;83.00
7502;DHT22;3792;47.740;7.606;2023-06-19T15:32:25;30.30;82.60
7502;DHT22;3792;47.740;7.606;2023-06-19T15:34:52;30.40;83.10
7502;DHT22;3792;47.740;7.606;2023-06-19T15:37:19;30.50;82.10
7502;DHT22;3792;47.740;7.606;2023-06-19T15:39:46;30.50;80.80
7502;DHT22;3792;47.740;7.606;2023-06-19T15:42:13;30.70;80.70
7502;DHT22;3792;47.740;7.606;2023-06-19T15:44:40;30.80;81.70
7502;DHT22;3792;47.740;7.606;2023-06-19T15:47:09;31.20;80.10
7502;DHT22;3792;47.740;7.606;2023-06-19T15:49:36;31.30;80.60
7502;DHT22;3792;47.740;7.606;2023-06-19T15:52:04;31.40;80.20
7502;DHT22;3792;47.740;7.606;2023-06-19T15:54:31;31.60;78.90
7502;DHT22;3792;47.740;7.606;2023-06-19T15:56:58;31.60;78.60
7502;DHT22;3792;47.740;7.606;2023-06-19T15:59:25;31.60;78.30
7502;DHT22;3792;47.740;7.606;2023-06-19T16:01:52;31.60;77.70
7502;DHT22;3792;47.740;7.606;2023-06-19T16:04:20;31.60;77.10
7502;DHT22;3792;47.740;7.606;2023-06-19T16:06:47;31.60;77.10